sensor_id;sensor_type;location;lat;lon;timestamp;pressure;altitude;pressure_sealevel;temperature;humidity
55289;BME280;41154;45.394;5.734;2023-02-03T00:00:27;98657.25;;;-0.94;100.00
55289;BME280;41154;45.394;5.734;2023-02-03T00:02:56;98652.78;;;-0.94;100.00
55289;BME280;41154;45.394;5.734;2023-02-03T00:05:22;98660.69;;;-1.03;100.00
55289;BME280;41154;45.394;5.734;2023-02-03T00:07:48;98664.88;;;-0.91;100.00
55289;BME280;41154;45.394;5.734;2023-02-03T00:10:15;98660.41;;;-1.00;100.00
55289;BME280;41154;45.394;5.734;2023-02-03T00:12:47;98663.19;;;-1.02;100.00
55289;BME280;41154;45.394;5.734;2023-02-03T00:15:13;98661.56;;;-0.93;100.00
55289;BME280;41154;45.394;5.734;2023-02-03T00:17:39;98659.88;;;-0.94;100.00
55289;BME280;41154;45.394;5.734;2023-02-03T00:20:05;98651.56;;;-0.99;100.00
55289;BME280;41154;45.394;5.734;2023-02-03T00:22:31;98659.59;;;-1.11;100.00
55289;BME280;41154;45.394;5.734;2023-02-03T00:24:56;98669.56;;;-1.45;100.00
55289;BME280;41154;45.394;5.734;2023-02-03T00:27:22;98665.28;;;-1.46;100.00
55289;BME280;41154;45.394;5.734;2023-02-03T00:29:48;98666.38;;;-1.39;100.00
55289;BME280;41154;45.394;5.734;2023-02-03T00:32:13;98663.00;;;-1.20;100.00
55289;BME280;41154;45.394;5.734;2023-02-03T00:34:39;98653.84;;;-1.25;100.00
55289;BME280;41154;45.394;5.734;2023-02-03T00:37:05;98653.97;;;-1.27;100.00
55289;BME280;41154;45.394;5.734;2023-02-03T00:39:31;98658.03;;;-1.13;100.00
55289;BME280;41154;45.394;5.734;2023-02-03T00:41:57;98660.38;;;-1.20;100.00
55289;BME280;41154;45.394;5.734;2023-02-03T00:44:22;98662.13;;;-1.30;100.00
55289;BME280;41154;45.394;5.734;2023-02-03T00:46:49;98661.00;;;-1.37;100.00
55289;BME280;41154;45.394;5.734;2023-02-03T00:49:15;98661.00;;;-1.37;100.00
55289;BME280;41154;45.394;5.734;2023-02-03T00:51:41;98661.59;;;-1.34;100.00
55289;BME280;41154;45.394;5.734;2023-02-03T00:54:06;98660.56;;;-1.42;100.00
55289;BME280;41154;45.394;5.734;2023-02-03T00:56:32;98659.56;;;-1.51;100.00
55289;BME280;41154;45.394;5.734;2023-02-03T00:58:58;98662.78;;;-1.48;100.00
55289;BME280;41154;45.394;5.734;2023-02-03T01:01:24;98660.91;;;-1.67;100.00
55289;BME280;41154;45.394;5.734;2023-02-03T01:03:49;98658.03;;;-1.54;100.00
55289;BME280;41154;45.394;5.734;2023-02-03T01:06:19;98655.31;;;-1.73;100.00
55289;BME280;41154;45.394;5.734;2023-02-03T01:08:46;98644.72;;;-1.62;100.00
55289;BME280;41154;45.394;5.734;2023-02-03T01:11:21;98644.59;;;-1.82;100.00
55289;BME280;41154;45.394;5.734;2023-02-03T01:13:47;98651.53;;;-1.81;100.00
55289;BME280;41154;45.394;5.734;2023-02-03T01:16:16;98647.50;;;-2.06;100.00
55289;BME280;41154;45.394;5.734;2023-02-03T01:18:42;98649.81;;;-1.91;100.00
55289;BME280;41154;45.394;5.734;2023-02-03T01:21:11;98653.53;;;-1.94;100.00
55289;BME280;41154;45.394;5.734;2023-02-03T01:23:40;98650.66;;;-1.91;100.00
55289;BME280;41154;45.394;5.734;2023-02-03T01:26:09;98647.31;;;-1.93;100.00
55289;BME280;41154;45.394;5.734;2023-02-03T01:28:36;98649.78;;;-1.70;100.00
55289;BME280;41154;45.394;5.734;2023-02-03T01:31:12;98647.88;;;-1.89;100.00
55289;BME280;41154;45.394;5.734;2023-02-03T01:33:42;98647.59;;;-1.96;100.00
55289;BME280;41154;45.394;5.734;2023-02-03T01:36:11;98652.84;;;-1.96;100.00
55289;BME280;41154;45.394;5.734;2023-02-03T01:38:37;98647.94;;;-1.79;100.00
55289;BME280;41154;45.394;5.734;2023-02-03T01:41:06;98648.66;;;-1.77;100.00
55289;BME280;41154;45.394;5.734;2023-02-03T01:43:35;98649.56;;;-1.88;100.00
55289;BME280;41154;45.394;5.734;2023-02-03T01:46:06;98662.09;;;-1.71;100.00
55289;BME280;41154;45.394;5.734;2023-02-03T01:48:39;98662.50;;;-1.75;100.00
55289;BME280;41154;45.394;5.734;2023-02-03T01:51:05;98653.31;;;-1.81;100.00
55289;BME280;41154;45.394;5.734;2023-02-03T01:53:32;98652.84;;;-1.96;100.00
55289;BME280;41154;45.394;5.734;2023-02-03T01:55:58;98642.06;;;-1.93;100.00
55289;BME280;41154;45.394;5.734;2023-02-03T01:58:30;98644.59;;;-1.82;100.00
55289;BME280;41154;45.394;5.734;2023-02-03T02:01:33;98633.06;;;-1.59;100.00
55289;BME280;41154;45.394;5.734;2023-02-03T02:04:00;98637.38;;;-1.58;100.00
55289;BME280;41154;45.394;5.734;2023-02-03T02:06:27;98638.78;;;-1.85;100.00
55289;BME280;41154;45.394;5.734;2023-02-03T02:08:54;98644.44;;;-1.90;100.00
55289;BME280;41154;45.394;5.734;2023-02-03T02:11:22;98645.91;;;-1.76;100.00
55289;BME280;41154;45.394;5.734;2023-02-03T02:13:49;98641.31;;;-1.74;100.00
55289;BME280;41154;45.394;5.734;2023-02-03T02:16:38;98635.13;;;-1.94;100.00
55289;BME280;41154;45.394;5.734;2023-02-03T02:22:19;98635.31;;;-1.86;100.00
55289;BME280;41154;45.394;5.734;2023-02-03T02:31:35;98635.34;;;-2.07;100.00
55289;BME280;41154;45.394;5.734;2023-02-03T02:36:34;98638.34;;;-2.11;100.00
55289;BME280;41154;45.394;5.734;2023-02-03T02:39:11;98638.78;;;-2.06;100.00
55289;BME280;41154;45.394;5.734;2023-02-03T02:41:42;98639.03;;;-2.09;100.00
55289;BME280;41154;45.394;5.734;2023-02-03T02:44:15;98648.03;;;-2.12;100.00
55289;BME280;41154;45.394;5.734;2023-02-03T02:46:49;98643.22;;;-2.28;100.00
55289;BME280;41154;45.394;5.734;2023-02-03T02:49:32;98646.31;;;-2.23;100.00
55289;BME280;41154;45.394;5.734;2023-02-03T02:52:03;98646.06;;;-2.20;100.00
55289;BME280;41154;45.394;5.734;2023-02-03T02:54:31;98640.41;;;-2.36;100.00
55289;BME280;41154;45.394;5.734;2023-02-03T02:57:00;98643.81;;;-2.24;100.00
55289;BME280;41154;45.394;5.734;2023-02-03T02:59:29;98642.19;;;-2.37;100.00
55289;BME280;41154;45.394;5.734;2023-02-03T03:01:55;98631.44;;;-2.33;100.00
55289;BME280;41154;45.394;5.734;2023-02-03T03:04:24;98628.59;;;-2.42;100.00
55289;BME280;41154;45.394;5.734;2023-02-03T03:07:22;98629.47;;;-2.53;100.00
55289;BME280;41154;45.394;5.734;2023-02-03T03:09:56;98627.44;;;-2.49;100.00
55289;BME280;41154;45.394;5.734;2023-02-03T03:12:28;98624.81;;;-2.49;100.00
55289;BME280;41154;45.394;5.734;2023-02-03T03:15:03;98628.31;;;-2.60;100.00
55289;BME280;41154;45.394;5.734;2023-02-03T03:17:33;98623.56;;;-2.66;100.00
55289;BME280;41154;45.394;5.734;2023-02-03T03:20:06;98635.19;;;-2.47;100.00
55289;BME280;41154;45.394;5.734;2023-02-03T03:22:39;98639.72;;;-2.49;100.00
55289;BME280;41154;45.394;5.734;2023-02-03T03:25:18;98642.72;;;-2.43;100.00
55289;BME280;41154;45.394;5.734;2023-02-03T03:27:50;98646.16;;;-2.42;100.00
55289;BME280;41154;45.394;5.734;2023-02-03T03:30:21;98654.28;;;-2.45;100.00
55289;BME280;41154;45.394;5.734;2023-02-03T03:32:48;98653.84;;;-2.50;100.00
55289;BME280;41154;45.394;5.734;2023-02-03T03:35:15;98657.03;;;-2.47;100.00
55289;BME280;41154;45.394;5.734;2023-02-03T03:40:29;98677.25;;;-2.59;100.00
55289;BME280;41154;45.394;5.734;2023-02-03T03:43:16;98679.53;;;-2.54;100.00
55289;BME280;41154;45.394;5.734;2023-02-03T03:45:59;98675.13;;;-2.54;100.00
55289;BME280;41154;45.394;5.734;2023-02-03T03:50:56;98666.06;;;-2.61;100.00
55289;BME280;41154;45.394;5.734;2023-02-03T03:53:24;98662.59;;;-2.61;100.00
55289;BME280;41154;45.394;5.734;2023-02-03T03:55:52;98654.91;;;-2.85;100.00
55289;BME280;41154;45.394;5.734;2023-02-03T03:58:23;98651.41;;;-2.75;100.00
55289;BME280;41154;45.394;5.734;2023-02-03T04:00:54;98653.22;;;-2.75;100.00
55289;BME280;41154;45.394;5.734;2023-02-03T04:03:30;98654.41;;;-2.79;100.00
55289;BME280;41154;45.394;5.734;2023-02-03T04:05:57;98661.38;;;-3.01;100.00
55289;BME280;41154;45.394;5.734;2023-02-03T04:08:22;98651.22;;;-2.83;100.00
55289;BME280;41154;45.394;5.734;2023-02-03T04:10:48;98661.31;;;-2.67;100.00
55289;BME280;41154;45.394;5.734;2023-02-03T04:13:13;98652.28;;;-2.74;100.00
55289;BME280;41154;45.394;5.734;2023-02-03T04:15:40;98653.59;;;-2.80;100.00
55289;BME280;41154;45.394;5.734;2023-02-03T04:18:06;98659.91;;;-2.82;100.00
55289;BME280;41154;45.394;5.734;2023-02-03T04:20:32;98653.84;;;-2.83;100.00
55289;BME280;41154;45.394;5.734;2023-02-03T04:22:58;98651.81;;;-2.91;100.00
55289;BME280;41154;45.394;5.734;2023-02-03T04:25:25;98650.13;;;-2.80;100.00
55289;BME280;41154;45.394;5.734;2023-02-03T04:27:50;98647.78;;;-2.95;100.00
55289;BME280;41154;45.394;5.734;2023-02-03T04:30:16;98639.31;;;-2.98;100.00
55289;BME280;41154;45.394;5.734;2023-02-03T04:32:45;98648.13;;;-2.99;100.00
55289;BME280;41154;45.394;5.734;2023-02-03T04:35:11;98645.88;;;-2.93;100.00
55289;BME280;41154;45.394;5.734;2023-02-03T04:37:37;98651.13;;;-3.04;100.00
55289;BME280;41154;45.394;5.734;2023-02-03T04:40:04;98644.34;;;-3.07;100.00
55289;BME280;41154;45.394;5.734;2023-02-03T04:42:29;98646.00;;;-3.05;100.00
55289;BME280;41154;45.394;5.734;2023-02-03T04:44:55;98655.31;;;-3.01;100.00
55289;BME280;41154;45.394;5.734;2023-02-03T04:47:21;98647.66;;;-2.93;100.00
55289;BME280;41154;45.394;5.734;2023-02-03T04:49:46;98642.16;;;-2.90;100.00
55289;BME280;41154;45.394;5.734;2023-02-03T04:52:13;98640.84;;;-2.84;100.00
55289;BME280;41154;45.394;5.734;2023-02-03T04:54:38;98640.41;;;-3.12;100.00
55289;BME280;41154;45.394;5.734;2023-02-03T04:57:05;98637.81;;;-3.23;100.00
55289;BME280;41154;45.394;5.734;2023-02-03T04:59:31;98643.63;;;-3.09;100.00
55289;BME280;41154;45.394;5.734;2023-02-03T05:01:56;98661.38;;;-3.01;100.00
55289;BME280;41154;45.394;5.734;2023-02-03T05:04:22;98657.03;;;-3.23;100.00
55289;BME280;41154;45.394;5.734;2023-02-03T05:06:48;98674.94;;;-3.28;100.00
55289;BME280;41154;45.394;5.734;2023-02-03T05:09:14;98668.13;;;-3.42;100.00
55289;BME280;41154;45.394;5.734;2023-02-03T05:11:39;98664.56;;;-3.41;100.00
55289;BME280;41154;45.394;5.734;2023-02-03T05:14:06;98661.34;;;-3.45;100.00
55289;BME280;41154;45.394;5.734;2023-02-03T05:16:32;98651.09;;;-3.36;100.00
55289;BME280;41154;45.394;5.734;2023-02-03T05:18:57;98638.44;;;-3.31;100.00
55289;BME280;41154;45.394;5.734;2023-02-03T05:21:23;98637.25;;;-3.38;100.00
55289;BME280;41154;45.394;5.734;2023-02-03T05:23:49;98625.69;;;-3.36;100.00
55289;BME280;41154;45.394;5.734;2023-02-03T05:26:15;98629.25;;;-3.26;100.00
55289;BME280;41154;45.394;5.734;2023-02-03T05:28:40;98617.81;;;-3.36;100.00
55289;BME280;41154;45.394;5.734;2023-02-03T05:31:06;98616.38;;;-3.29;100.00
55289;BME280;41154;45.394;5.734;2023-02-03T05:33:32;98615.41;;;-3.28;100.00
55289;BME280;41154;45.394;5.734;2023-02-03T05:35:58;98600.16;;;-3.45;100.00
55289;BME280;41154;45.394;5.734;2023-02-03T05:38:23;98600.13;;;-3.22;100.00
55289;BME280;41154;45.394;5.734;2023-02-03T05:40:50;98596.63;;;-3.12;100.00
55289;BME280;41154;45.394;5.734;2023-02-03T05:43:35;98602.22;;;-3.05;100.00
55289;BME280;41154;45.394;5.734;2023-02-03T05:46:02;98599.44;;;-2.92;100.00
55289;BME280;41154;45.394;5.734;2023-02-03T05:48:28;98590.34;;;-3.20;100.00
55289;BME280;41154;45.394;5.734;2023-02-03T05:50:54;98594.94;;;-3.01;100.00
55289;BME280;41154;45.394;5.734;2023-02-03T05:53:20;98587.22;;;-3.14;100.00
55289;BME280;41154;45.394;5.734;2023-02-03T05:55:45;98597.03;;;-3.16;100.00
55289;BME280;41154;45.394;5.734;2023-02-03T05:58:11;98590.44;;;-3.11;100.00
55289;BME280;41154;45.394;5.734;2023-02-03T06:00:37;98596.25;;;-3.07;100.00
55289;BME280;41154;45.394;5.734;2023-02-03T06:03:03;98591.03;;;-3.18;100.00
55289;BME280;41154;45.394;5.734;2023-02-03T06:05:31;98587.84;;;-3.22;100.00
55289;BME280;41154;45.394;5.734;2023-02-03T06:07:57;98577.63;;;-3.36;100.00
55289;BME280;41154;45.394;5.734;2023-02-03T06:10:23;98583.41;;;-3.21;100.00
55289;BME280;41154;45.394;5.734;2023-02-03T06:12:49;98591.00;;;-3.39;100.00
55289;BME280;41154;45.394;5.734;2023-02-03T06:15:15;98591.84;;;-3.50;100.00
55289;BME280;41154;45.394;5.734;2023-02-03T06:17:45;98599.44;;;-3.58;100.00
55289;BME280;41154;45.394;5.734;2023-02-03T06:20:12;98604.72;;;-3.70;100.00
55289;BME280;41154;45.394;5.734;2023-02-03T06:22:37;98597.22;;;-3.74;100.00
55289;BME280;41154;45.394;5.734;2023-02-03T06:25:03;98608.78;;;-3.77;100.00
55289;BME280;41154;45.394;5.734;2023-02-03T06:27:29;98621.53;;;-3.84;100.00
55289;BME280;41154;45.394;5.734;2023-02-03T06:29:55;98613.06;;;-3.76;100.00
55289;BME280;41154;45.394;5.734;2023-02-03T06:32:21;98608.06;;;-3.79;100.00
55289;BME280;41154;45.394;5.734;2023-02-03T06:34:47;98604.00;;;-3.61;100.00
55289;BME280;41154;45.394;5.734;2023-02-03T06:37:12;98608.91;;;-3.78;100.00
55289;BME280;41154;45.394;5.734;2023-02-03T06:39:38;98606.75;;;-3.85;100.00
55289;BME280;41154;45.394;5.734;2023-02-03T06:42:04;98619.50;;;-3.69;100.00
55289;BME280;41154;45.394;5.734;2023-02-03T06:44:29;98617.34;;;-3.64;100.00
55289;BME280;41154;45.394;5.734;2023-02-03T06:46:55;98624.03;;;-3.48;100.00
55289;BME280;41154;45.394;5.734;2023-02-03T06:49:21;98627.59;;;-3.38;100.00
55289;BME280;41154;45.394;5.734;2023-02-03T06:51:46;98631.28;;;-3.18;100.00
55289;BME280;41154;45.394;5.734;2023-02-03T06:54:13;98630.94;;;-3.47;100.00
55289;BME280;41154;45.394;5.734;2023-02-03T06:56:39;98627.38;;;-3.69;100.00
55289;BME280;41154;45.394;5.734;2023-02-03T06:59:05;98629.03;;;-3.56;100.00
55289;BME280;41154;45.394;5.734;2023-02-03T07:01:30;98631.66;;;-3.68;100.00
55289;BME280;41154;45.394;5.734;2023-02-03T07:03:57;98634.16;;;-3.55;100.00
55289;BME280;41154;45.394;5.734;2023-02-03T07:06:26;98630.69;;;-3.33;100.00
55289;BME280;41154;45.394;5.734;2023-02-03T07:08:57;98630.31;;;-3.28;100.00
55289;BME280;41154;45.394;5.734;2023-02-03T07:11:23;98635.69;;;-3.30;100.00
55289;BME280;41154;45.394;5.734;2023-02-03T07:13:50;98629.13;;;-3.24;100.00
55289;BME280;41154;45.394;5.734;2023-02-03T07:16:16;98631.03;;;-3.26;100.00
55289;BME280;41154;45.394;5.734;2023-02-03T07:18:41;98634.25;;;-3.68;100.00
55289;BME280;41154;45.394;5.734;2023-02-03T07:21:07;98635.00;;;-3.54;100.00
55289;BME280;41154;45.394;5.734;2023-02-03T07:23:33;98639.28;;;-3.42;100.00
55289;BME280;41154;45.394;5.734;2023-02-03T07:25:59;98639.91;;;-3.72;100.00
55289;BME280;41154;45.394;5.734;2023-02-03T07:28:25;98647.75;;;-3.72;100.00
55289;BME280;41154;45.394;5.734;2023-02-03T07:30:51;98663.13;;;-3.79;100.00
55289;BME280;41154;45.394;5.734;2023-02-03T07:33:16;98671.94;;;-3.80;100.00
55289;BME280;41154;45.394;5.734;2023-02-03T07:35:42;98682.22;;;-3.66;100.00
55289;BME280;41154;45.394;5.734;2023-02-03T07:38:08;98691.75;;;-3.31;100.00
55289;BME280;41154;45.394;5.734;2023-02-03T07:40:33;98685.78;;;-3.33;100.00
55289;BME280;41154;45.394;5.734;2023-02-03T07:42:59;98689.50;;;-3.58;100.00
55289;BME280;41154;45.394;5.734;2023-02-03T07:45:25;98688.63;;;-3.58;100.00
55289;BME280;41154;45.394;5.734;2023-02-03T07:47:51;98686.50;;;-3.53;100.00
55289;BME280;41154;45.394;5.734;2023-02-03T07:50:16;98695.31;;;-3.54;100.00
55289;BME280;41154;45.394;5.734;2023-02-03T07:52:42;98698.19;;;-3.57;100.00
55289;BME280;41154;45.394;5.734;2023-02-03T07:55:08;98684.25;;;-3.58;100.00
55289;BME280;41154;45.394;5.734;2023-02-03T07:57:34;98681.25;;;-3.53;100.00
55289;BME280;41154;45.394;5.734;2023-02-03T08:00:02;98687.69;;;-3.57;100.00
55289;BME280;41154;45.394;5.734;2023-02-03T08:02:37;98685.88;;;-3.57;100.00
55289;BME280;41154;45.394;5.734;2023-02-03T08:05:03;98682.09;;;-3.64;100.00
55289;BME280;41154;45.394;5.734;2023-02-03T08:07:28;98686.84;;;-3.35;100.00
55289;BME280;41154;45.394;5.734;2023-02-03T08:09:54;98676.97;;;-3.32;100.00
55289;BME280;41154;45.394;5.734;2023-02-03T08:12:20;98673.88;;;-3.26;100.00
55289;BME280;41154;45.394;5.734;2023-02-03T08:14:46;98668.50;;;-3.24;100.00
55289;BME280;41154;45.394;5.734;2023-02-03T08:17:11;98665.28;;;-3.39;100.00
55289;BME280;41154;45.394;5.734;2023-02-03T08:19:37;98656.19;;;-3.46;100.00
55289;BME280;41154;45.394;5.734;2023-02-03T08:22:02;98649.91;;;-3.55;100.00
55289;BME280;41154;45.394;5.734;2023-02-03T08:24:28;98653.09;;;-3.29;100.00
55289;BME280;41154;45.394;5.734;2023-02-03T08:26:54;98671.34;;;-3.38;100.00
55289;BME280;41154;45.394;5.734;2023-02-03T08:29:19;98677.81;;;-3.42;100.00
55289;BME280;41154;45.394;5.734;2023-02-03T08:31:45;98703.63;;;-3.04;100.00
55289;BME280;41154;45.394;5.734;2023-02-03T08:34:11;98698.44;;;-2.72;100.00
55289;BME280;41154;45.394;5.734;2023-02-03T08:36:36;98704.56;;;-2.71;100.00
55289;BME280;41154;45.394;5.734;2023-02-03T08:39:05;98707.66;;;-2.33;100.00
55289;BME280;41154;45.394;5.734;2023-02-03T08:41:31;98717.91;;;-2.63;100.00
55289;BME280;41154;45.394;5.734;2023-02-03T08:43:58;98710.22;;;-2.55;100.00
55289;BME280;41154;45.394;5.734;2023-02-03T08:46:24;98700.28;;;-1.24;100.00
55289;BME280;41154;45.394;5.734;2023-02-03T08:48:50;98700.47;;;-0.97;100.00
55289;BME280;41154;45.394;5.734;2023-02-03T08:51:17;98703.47;;;-0.02;100.00
55289;BME280;41154;45.394;5.734;2023-02-03T08:53:43;98691.38;;;0.72;100.00
55289;BME280;41154;45.394;5.734;2023-02-03T08:56:10;98697.34;;;1.02;100.00
55289;BME280;41154;45.394;5.734;2023-02-03T08:58:36;98695.22;;;1.33;100.00
55289;BME280;41154;45.394;5.734;2023-02-03T09:01:13;98706.59;;;1.16;100.00
55289;BME280;41154;45.394;5.734;2023-02-03T09:03:39;98693.78;;;0.56;100.00
55289;BME280;41154;45.394;5.734;2023-02-03T09:06:06;98695.06;;;2.07;100.00
55289;BME280;41154;45.394;5.734;2023-02-03T09:08:35;98709.00;;;1.91;100.00
55289;BME280;41154;45.394;5.734;2023-02-03T09:11:01;98697.03;;;3.26;100.00
55289;BME280;41154;45.394;5.734;2023-02-03T09:13:27;98707.47;;;4.84;100.00
55289;BME280;41154;45.394;5.734;2023-02-03T09:15:53;98713.38;;;5.42;100.00
55289;BME280;41154;45.394;5.734;2023-02-03T09:18:18;98705.38;;;4.55;100.00
55289;BME280;41154;45.394;5.734;2023-02-03T09:20:44;98709.00;;;2.96;100.00
55289;BME280;41154;45.394;5.734;2023-02-03T09:23:09;98715.13;;;2.36;100.00
55289;BME280;41154;45.394;5.734;2023-02-03T09:25:35;98702.28;;;3.18;100.00
55289;BME280;41154;45.394;5.734;2023-02-03T09:28:01;98707.09;;;2.80;100.00
55289;BME280;41154;45.394;5.734;2023-02-03T09:30:27;98692.03;;;2.02;100.00
55289;BME280;41154;45.394;5.734;2023-02-03T09:32:53;98698.25;;;1.74;100.00
55289;BME280;41154;45.394;5.734;2023-02-03T09:35:21;98707.69;;;2.13;100.00
55289;BME280;41154;45.394;5.734;2023-02-03T09:37:47;98707.78;;;1.85;100.00
55289;BME280;41154;45.394;5.734;2023-02-03T09:40:29;98707.63;;;1.51;100.00
55289;BME280;41154;45.394;5.734;2023-02-03T09:45:41;98714.97;;;1.75;100.00
55289;BME280;41154;45.394;5.734;2023-02-03T09:48:16;98708.16;;;1.72;100.00
55289;BME280;41154;45.394;5.734;2023-02-03T09:50:45;98710.72;;;1.82;100.00
55289;BME280;41154;45.394;5.734;2023-02-03T09:53:23;98709.22;;;1.97;100.00
55289;BME280;41154;45.394;5.734;2023-02-03T09:55:51;98716.38;;;2.23;100.00
55289;BME280;41154;45.394;5.734;2023-02-03T09:58:18;98724.00;;;2.79;100.00
55289;BME280;41154;45.394;5.734;2023-02-03T10:01:07;98725.78;;;2.44;100.00
55289;BME280;41154;45.394;5.734;2023-02-03T10:03:46;98723.59;;;2.39;100.00
55289;BME280;41154;45.394;5.734;2023-02-03T10:06:29;98724.84;;;2.53;100.00
55289;BME280;41154;45.394;5.734;2023-02-03T10:19:41;98708.19;;;3.46;100.00
55289;BME280;41154;45.394;5.734;2023-02-03T10:22:12;98708.88;;;3.56;100.00
55289;BME280;41154;45.394;5.734;2023-02-03T10:24:47;98702.25;;;3.69;100.00
55289;BME280;41154;45.394;5.734;2023-02-03T10:27:19;98709.91;;;4.05;100.00
55289;BME280;41154;45.394;5.734;2023-02-03T10:29:57;98708.56;;;4.25;100.00
55289;BME280;41154;45.394;5.734;2023-02-03T10:32:26;98710.59;;;4.15;100.00
55289;BME280;41154;45.394;5.734;2023-02-03T10:34:52;98714.19;;;4.63;100.00
55289;BME280;41154;45.394;5.734;2023-02-03T10:37:40;98706.97;;;4.89;100.00
55289;BME280;41154;45.394;5.734;2023-02-03T10:40:14;98702.41;;;5.06;100.00
55289;BME280;41154;45.394;5.734;2023-02-03T10:42:42;98697.81;;;5.31;100.00
55289;BME280;41154;45.394;5.734;2023-02-03T10:45:33;98693.84;;;5.27;100.00
55289;BME280;41154;45.394;5.734;2023-02-03T10:48:02;98688.25;;;5.45;100.00
55289;BME280;41154;45.394;5.734;2023-02-03T10:50:28;98681.97;;;5.69;100.00
55289;BME280;41154;45.394;5.734;2023-02-03T10:56:13;98661.94;;;5.96;100.00
55289;BME280;41154;45.394;5.734;2023-02-03T10:58:54;98662.06;;;6.03;100.00
55289;BME280;41154;45.394;5.734;2023-02-03T11:01:24;98649.06;;;6.08;100.00
55289;BME280;41154;45.394;5.734;2023-02-03T11:04:02;98643.56;;;6.24;100.00
55289;BME280;41154;45.394;5.734;2023-02-03T11:06:33;98639.19;;;6.32;100.00
55289;BME280;41154;45.394;5.734;2023-02-03T11:09:00;98639.81;;;5.96;100.00
55289;BME280;41154;45.394;5.734;2023-02-03T11:11:31;98636.31;;;5.95;100.00
55289;BME280;41154;45.394;5.734;2023-02-03T11:16:33;98633.91;;;5.85;100.00
55289;BME280;41154;45.394;5.734;2023-02-03T11:19:16;98651.28;;;6.19;100.00
55289;BME280;41154;45.394;5.734;2023-02-03T11:21:46;98643.72;;;6.08;100.00
55289;BME280;41154;45.394;5.734;2023-02-03T11:24:25;98641.88;;;6.08;100.00
55289;BME280;41154;45.394;5.734;2023-02-03T11:29:33;98640.66;;;6.49;100.00
55289;BME280;41154;45.394;5.734;2023-02-03T11:32:22;98640.38;;;6.59;100.00
55289;BME280;41154;45.394;5.734;2023-02-03T11:35:03;98641.31;;;6.66;100.00
55289;BME280;41154;45.394;5.734;2023-02-03T11:37:41;98635.72;;;6.61;100.00
55289;BME280;41154;45.394;5.734;2023-02-03T11:42:37;98647.13;;;6.17;100.00
55289;BME280;41154;45.394;5.734;2023-02-03T11:45:24;98627.59;;;6.54;100.00
55289;BME280;41154;45.394;5.734;2023-02-03T11:58:43;98631.25;;;6.98;100.00
55289;BME280;41154;45.394;5.734;2023-02-03T12:01:29;98641.66;;;6.93;100.00
55289;BME280;41154;45.394;5.734;2023-02-03T12:20:43;98637.91;;;6.72;100.00
55289;BME280;41154;45.394;5.734;2023-02-03T12:26:08;98631.38;;;6.60;100.00
55289;BME280;41154;45.394;5.734;2023-02-03T12:28:54;98630.72;;;6.88;100.00
55289;BME280;41154;45.394;5.734;2023-02-03T12:31:32;98626.31;;;6.65;100.00
55289;BME280;41154;45.394;5.734;2023-02-03T12:36:57;98605.72;;;6.74;100.00
55289;BME280;41154;45.394;5.734;2023-02-03T12:42:09;98597.22;;;7.00;100.00
55289;BME280;41154;45.394;5.734;2023-02-03T12:49:56;98595.22;;;6.72;100.00
55289;BME280;41154;45.394;5.734;2023-02-03T12:55:06;98586.88;;;7.12;100.00
55289;BME280;41154;45.394;5.734;2023-02-03T12:57:44;98577.25;;;7.32;100.00
55289;BME280;41154;45.394;5.734;2023-02-03T13:01:15;98567.25;;;6.83;100.00
55289;BME280;41154;45.394;5.734;2023-02-03T13:03:57;98554.78;;;7.05;100.00
55289;BME280;41154;45.394;5.734;2023-02-03T13:12:14;98540.16;;;7.44;100.00
55289;BME280;41154;45.394;5.734;2023-02-03T13:14:47;98546.44;;;6.93;100.00
55289;BME280;41154;45.394;5.734;2023-02-03T13:17:23;98539.03;;;7.10;100.00
55289;BME280;41154;45.394;5.734;2023-02-03T13:19:56;98544.34;;;7.10;100.00
55289;BME280;41154;45.394;5.734;2023-02-03T13:22:23;98541.63;;;7.04;100.00
55289;BME280;41154;45.394;5.734;2023-02-03T13:25:18;98552.69;;;7.22;100.00
55289;BME280;41154;45.394;5.734;2023-02-03T13:33:49;98546.22;;;7.31;100.00
55289;BME280;41154;45.394;5.734;2023-02-03T13:41:53;98535.75;;;7.30;100.00
55289;BME280;41154;45.394;5.734;2023-02-03T13:44:26;98530.59;;;7.50;100.00
55289;BME280;41154;45.394;5.734;2023-02-03T13:46:55;98529.25;;;7.39;100.00
55289;BME280;41154;45.394;5.734;2023-02-03T13:49:26;98528.72;;;7.50;100.00
55289;BME280;41154;45.394;5.734;2023-02-03T13:51:53;98531.53;;;7.64;100.00
55289;BME280;41154;45.394;5.734;2023-02-03T13:54:27;98514.22;;;7.60;100.00
55289;BME280;41154;45.394;5.734;2023-02-03T13:56:59;98516.00;;;7.52;100.00
55289;BME280;41154;45.394;5.734;2023-02-03T13:59:40;98503.00;;;7.43;100.00
55289;BME280;41154;45.394;5.734;2023-02-03T14:07:31;98503.81;;;7.43;100.00
55289;BME280;41154;45.394;5.734;2023-02-03T14:10:20;98514.09;;;7.46;100.00
55289;BME280;41154;45.394;5.734;2023-02-03T14:18:01;98494.38;;;7.69;100.00
55289;BME280;41154;45.394;5.734;2023-02-03T14:25:32;98506.91;;;7.68;100.00
55289;BME280;41154;45.394;5.734;2023-02-03T14:28:05;98516.88;;;7.60;100.00
55289;BME280;41154;45.394;5.734;2023-02-03T14:30:32;98524.13;;;7.66;100.00
55289;BME280;41154;45.394;5.734;2023-02-03T14:32:59;98511.78;;;7.93;100.00
55289;BME280;41154;45.394;5.734;2023-02-03T14:35:39;98507.53;;;8.05;100.00
55289;BME280;41154;45.394;5.734;2023-02-03T14:38:10;98510.72;;;7.87;100.00
55289;BME280;41154;45.394;5.734;2023-02-03T14:40:53;98502.97;;;7.99;100.00
55289;BME280;41154;45.394;5.734;2023-02-03T14:46:40;98499.16;;;7.80;100.00
55289;BME280;41154;45.394;5.734;2023-02-03T14:49:33;98508.44;;;7.56;100.00
55289;BME280;41154;45.394;5.734;2023-02-03T14:57:19;98495.56;;;7.66;93.60
55289;BME280;41154;45.394;5.734;2023-02-03T15:00:00;98498.19;;;7.60;93.68
55289;BME280;41154;45.394;5.734;2023-02-03T15:02:28;98495.75;;;7.65;92.88
55289;BME280;41154;45.394;5.734;2023-02-03T15:10:19;98488.69;;;7.50;92.77
55289;BME280;41154;45.394;5.734;2023-02-03T15:12:47;98477.72;;;7.67;92.61
55289;BME280;41154;45.394;5.734;2023-02-03T15:17:42;98476.22;;;7.58;91.75
55289;BME280;41154;45.394;5.734;2023-02-03T15:20:32;98469.91;;;7.65;96.57